Main page
METAR-TAF:

METAR-TAF

Airports :

Reus Airport

Reus, Spain

latitude: 41-09N, longitude: 001-10E, elevation: 71 m

Current weather observation

The report was made 47 minutes ago, at 20:00 UTC
Wind 2 kt from variable directions
Temperature 3°C
Humidity 65%
Pressure 1028 hPa
Visibility 10 km or more
no clouds below 1500 m and no cumulonimbus

METAR: LERS 212000Z VRB02KT CAVOK 03/M03 Q1028

Time: 21:47 (20:47 UTC)

Forecast

The report was made 47 minutes ago, at 20:00 UTC
Forecast valid from 21 at 21 UTC to 22 at 21 UTC
Wind 3 kt from variable directions
Visibility 10 km or more
Few clouds at a height of 3000 ft
Temporary
from 21 at 21 UTC to 22 at 04 UTC
Wind 10 kt from the West/Northwest

TAF: LERS 212000Z 2121/2221 VRB03KT 9999 FEW030 TX13/2213Z TNM01/2206Z TEMPO 2121/2204 30010KT

Weather observations and forecasts of more than 4000 airports (METAR and TAF reports).

The available stations are represented by yellow and red dots on the map.

Hover mouse over dot to see the name of the station.

Then click to see weather observations and forecasts.

To change the map : click on the green buttons with a black cross to zoom in, on the green button with a dash to zoom out, or on the green arrows for adjacent maps.


METAR-TAF: